Time;durP1;ratioP1;P1;durP2;ratioP2;P2;SDS_P1;SDS_P2;PMS_P1;PMS_P2;Temp;Humidity;BMP_temperature;BMP_pressure;BME280_temperature;BME280_humidity;BME280_pressure;Samples;Min_cycle;Max_cycle;Signal;HPM_P1;HPM_P2
2021/08/24 00:02:14;;;;;;;1.60;1.50;;;16.70;71.30;;;;;;4983991;28;20714;-64
2021/08/24 00:04:39;;;;;;;1.65;1.55;;;16.60;71.40;;;;;;4984842;28;20034;-64
2021/08/24 00:07:05;;;;;;;1.92;1.30;;;16.50;71.80;;;;;;5000735;28;20153;-64
2021/08/24 00:09:32;;;;;;;2.85;1.50;;;16.40;72.40;;;;;;4986754;28;20035;-64
2021/08/24 00:11:58;;;;;;;1.85;1.63;;;16.40;72.70;;;;;;4979623;28;20034;-63
2021/08/24 00:14:24;;;;;;;1.73;1.63;;;16.30;72.70;;;;;;4984025;28;20042;-64
2021/08/24 00:16:50;;;;;;;2.20;1.80;;;16.30;72.80;;;;;;4999206;28;20038;-64
2021/08/24 00:19:15;;;;;;;2.20;1.60;;;16.30;72.60;;;;;;5000660;28;20023;-64
2021/08/24 00:21:41;;;;;;;1.77;1.58;;;16.30;72.60;;;;;;4984960;28;20050;-64
2021/08/24 00:24:09;;;;;;;2.05;1.60;;;16.30;72.50;;;;;;4984682;28;20034;-64
2021/08/24 00:26:35;;;;;;;1.98;1.67;;;16.20;72.60;;;;;;4984556;28;20034;-64
2021/08/24 00:29:00;;;;;;;2.10;1.90;;;16.10;72.80;;;;;;4983001;28;20468;-64
2021/08/24 00:31:26;;;;;;;2.72;2.13;;;16.10;73.00;;;;;;4984307;28;20034;-64
2021/08/24 00:33:51;;;;;;;2.38;1.42;;;16.00;73.20;;;;;;4985019;28;20494;-64
2021/08/24 00:36:19;;;;;;;4.55;1.80;;;16.00;73.10;;;;;;4999324;28;20038;-64
2021/08/24 00:38:46;;;;;;;2.28;1.60;;;16.00;73.10;;;;;;4999985;28;20104;-64
2021/08/24 00:41:12;;;;;;;3.03;1.70;;;16.00;73.30;;;;;;4984370;28;20831;-63
2021/08/24 00:43:40;;;;;;;1.65;1.50;;;16.00;73.50;;;;;;4983120;28;20042;-64
2021/08/24 00:46:47;;;;;;;2.25;1.80;;;15.90;73.60;;;;;;4984723;28;20673;-64
2021/08/24 00:49:30;;;;;;;2.83;1.80;;;15.90;73.50;;;;;;4985383;28;20505;-64
2021/08/24 00:52:08;;;;;;;1.73;1.48;;;15.90;73.20;;;;;;4982017;28;20147;-64
2021/08/24 00:54:34;;;;;;;1.70;1.60;;;15.80;73.20;;;;;;4998081;28;20600;-64
2021/08/24 00:57:09;;;;;;;1.85;1.73;;;15.80;72.90;;;;;;4984976;28;20034;-63
2021/08/24 00:59:34;;;;;;;;;;;15.70;73.20;;;;;;4985392;28;20514;-64
2021/08/24 01:02:00;;;;;;;1.98;1.75;;;15.70;73.40;;;;;;4979266;28;19913;-64
2021/08/24 01:04:26;;;;;;;1.88;1.73;;;15.60;73.30;;;;;;4985169;28;20125;-64
2021/08/24 01:07:04;;;;;;;2.38;1.88;;;15.60;73.90;;;;;;4982839;28;20042;-63
2021/08/24 01:09:48;;;;;;;2.78;1.88;;;15.50;74.10;;;;;;4989333;28;20077;-63
2021/08/24 01:12:20;;;;;;;2.40;2.15;;;15.50;74.40;;;;;;4982549;28;20110;-64
2021/08/24 01:14:54;;;;;;;2.15;1.95;;;15.50;74.30;;;;;;4994559;28;20505;-64
2021/08/24 01:17:28;;;;;;;3.23;2.17;;;15.50;75.80;;;;;;4986963;28;20131;-64
2021/08/24 01:20:22;;;;;;;2.60;2.13;;;15.50;74.90;;;;;;4988650;28;20289;-64
2021/08/24 01:23:06;;;;;;;4.22;2.05;;;15.50;75.10;;;;;;4985514;28;20502;-64
2021/08/24 01:25:48;;;;;;;2.13;1.83;;;15.50;75.10;;;;;;4988811;28;20045;-64
2021/08/24 01:28:41;;;;;;;3.05;2.17;;;15.50;74.90;;;;;;4988358;28;20028;-64
2021/08/24 01:31:23;;;;;;;2.17;1.92;;;15.50;74.70;;;;;;4986926;28;20097;-64
2021/08/24 01:34:13;;;;;;;2.40;1.90;;;15.50;74.40;;;;;;4986280;28;20034;-64
2021/08/24 01:37:01;;;;;;;2.38;2.17;;;15.50;74.70;;;;;;4987111;28;20037;-64
2021/08/24 01:39:39;;;;;;;3.75;1.85;;;15.50;74.60;;;;;;4988530;28;20026;-63
2021/08/24 01:42:16;;;;;;;3.08;2.03;;;15.50;74.20;;;;;;4985543;28;20027;-63
2021/08/24 01:45:07;;;;;;;2.78;2.30;;;15.50;74.30;;;;;;4994272;28;20568;-64
2021/08/24 01:47:54;;;;;;;2.53;2.33;;;15.50;74.70;;;;;;4985713;28;20031;-64
2021/08/24 01:50:51;;;;;;;4.38;2.30;;;15.50;74.90;;;;;;4987975;28;20038;-64
2021/08/24 01:53:29;;;;;;;2.53;2.20;;;15.50;74.60;;;;;;4985775;28;20108;-63
2021/08/24 01:56:02;;;;;;;2.35;2.13;;;15.40;74.40;;;;;;4978782;28;20537;-64
2021/08/24 01:58:37;;;;;;;2.45;2.22;;;15.40;74.00;;;;;;4986571;28;20047;-64
2021/08/24 02:01:07;;;;;;;2.55;2.30;;;15.30;74.10;;;;;;4986198;28;20042;-64
2021/08/24 02:03:36;;;;;;;2.42;1.92;;;15.20;75.20;;;;;;4984868;28;20419;-64
2021/08/24 02:06:33;;;;;;;3.38;2.20;;;15.20;74.60;;;;;;4987864;28;20050;-64
2021/08/24 02:09:05;;;;;;;2.40;2.17;;;15.10;74.90;;;;;;4987529;28;20045;-64
2021/08/24 02:11:33;;;;;;;2.55;2.15;;;15.10;74.90;;;;;;4982394;28;20517;-64
2021/08/24 02:14:02;;;;;;;2.33;2.13;;;15.10;74.80;;;;;;4985726;28;20046;-64
2021/08/24 02:16:31;;;;;;;2.60;2.40;;;15.10;74.80;;;;;;4985885;28;20401;-64
2021/08/24 02:19:03;;;;;;;2.45;2.25;;;15.00;74.80;;;;;;4986072;28;20108;-63
2021/08/24 02:21:47;;;;;;;2.88;2.10;;;15.00;75.20;;;;;;4986039;28;20081;-64
2021/08/24 02:24:16;;;;;;;2.33;2.10;;;15.00;75.60;;;;;;4985733;28;20579;-64
2021/08/24 02:26:44;;;;;;;2.42;2.13;;;14.90;75.30;;;;;;4985570;28;20193;-64
2021/08/24 02:29:10;;;;;;;2.42;2.22;;;14.90;75.30;;;;;;4986896;28;20049;-64
2021/08/24 02:32:14;;;;;;;2.25;2.05;;;14.90;75.30;;;;;;4985006;28;20038;-64
2021/08/24 02:34:55;;;;;;;4.32;2.20;;;15.00;75.60;;;;;;4974123;28;20065;-64
2021/08/24 02:37:29;;;;;;;2.50;2.30;;;14.90;75.50;;;;;;5000990;28;20061;-63
2021/08/24 02:40:10;;;;;;;3.83;2.22;;;14.90;75.50;;;;;;4986135;28;20034;-64
2021/08/24 02:42:48;;;;;;;2.28;2.00;;;14.90;75.20;;;;;;4983453;28;20033;-64
2021/08/24 02:45:23;;;;;;;3.33;2.42;;;14.90;75.50;;;;;;4986579;28;20750;-64
2021/08/24 02:47:51;;;;;;;3.13;2.45;;;14.90;75.30;;;;;;4982721;28;20123;-64
2021/08/24 02:50:17;;;;;;;2.63;2.40;;;14.90;75.30;;;;;;4984638;28;20042;-64
2021/08/24 02:52:44;;;;;;;3.17;2.22;;;14.90;75.30;;;;;;4983319;28;20050;-63
2021/08/24 02:55:11;;;;;;;3.78;2.20;;;14.90;75.50;;;;;;4983710;28;20062;-63
2021/08/24 02:57:38;;;;;;;4.38;2.33;;;14.90;75.50;;;;;;4985468;28;20038;-63
2021/08/24 03:00:05;;;;;;;3.97;2.55;;;14.90;75.50;;;;;;4987830;28;20560;-64
2021/08/24 03:02:31;;;;;;;2.78;2.20;;;14.80;75.50;;;;;;4984671;28;20084;-64
2021/08/24 03:04:57;;;;;;;3.22;2.40;;;14.80;75.40;;;;;;4987142;28;20668;-64
2021/08/24 03:07:27;;;;;;;2.90;2.60;;;14.80;75.40;;;;;;4984949;28;20034;-64
2021/08/24 03:09:55;;;;;;;3.38;2.38;;;14.80;75.60;;;;;;4987323;28;20130;-63
2021/08/24 03:12:38;;;;;;;2.80;2.17;;;14.70;75.60;;;;;;4980391;28;20046;-63
2021/08/24 03:15:31;;;;;;;3.40;2.45;;;14.80;75.60;;;;;;4985712;28;20038;-64
2021/08/24 03:18:01;;;;;;;3.95;2.40;;;14.80;75.80;;;;;;4985646;28;20034;-63
2021/08/24 03:20:34;;;;;;;2.95;2.63;;;14.70;75.40;;;;;;4984797;28;20054;-63
2021/08/24 03:23:04;;;;;;;3.15;2.85;;;14.70;75.50;;;;;;4983084;28;20027;-64
2021/08/24 03:25:30;;;;;;;2.88;2.08;;;14.70;75.30;;;;;;4986254;28;20113;-63
2021/08/24 03:27:55;;;;;;;3.22;2.38;;;14.70;75.20;;;;;;4984930;28;20157;-64
2021/08/24 03:30:22;;;;;;;3.80;2.60;;;14.70;75.00;;;;;;4985412;28;20105;-64
2021/08/24 03:32:49;;;;;;;2.60;2.40;;;14.60;75.10;;;;;;4985010;28;20034;-64
2021/08/24 03:35:16;;;;;;;2.95;2.42;;;14.60;75.10;;;;;;4984829;28;20088;-63
2021/08/24 03:37:43;;;;;;;3.10;2.67;;;14.50;75.30;;;;;;4981705;28;20682;-64
2021/08/24 03:40:10;;;;;;;3.05;2.72;;;14.50;75.30;;;;;;4985747;28;20053;-63
2021/08/24 03:42:36;;;;;;;3.65;2.85;;;14.40;75.30;;;;;;4983503;28;20971;-63
2021/08/24 03:45:04;;;;;;;4.07;2.92;;;14.30;75.40;;;;;;4985325;28;20041;-63
2021/08/24 03:47:29;;;;;;;3.35;2.75;;;14.30;75.50;;;;;;4983377;28;20038;-63
2021/08/24 03:49:55;;;;;;;2.80;2.60;;;14.20;75.50;;;;;;4986003;28;20038;-63
2021/08/24 03:52:20;;;;;;;2.80;2.60;;;14.20;75.70;;;;;;4983212;28;20174;-63
2021/08/24 03:54:46;;;;;;;3.00;2.70;;;14.10;75.70;;;;;;4982798;28;20473;-63
2021/08/24 03:57:12;;;;;;;3.80;2.80;;;14.10;75.80;;;;;;4985783;28;20159;-63
2021/08/24 03:59:38;;;;;;;3.05;2.58;;;14.10;75.80;;;;;;5000012;28;20121;-63
2021/08/24 04:02:05;;;;;;;3.17;2.88;;;14.10;75.80;;;;;;4984596;28;20026;-63
2021/08/24 04:04:31;;;;;;;5.20;2.92;;;14.10;75.90;;;;;;4982387;28;20514;-63
2021/08/24 04:06:57;;;;;;;4.88;3.03;;;14.10;76.10;;;;;;4984370;28;20035;-63
2021/08/24 04:09:22;;;;;;;5.03;2.83;;;14.00;76.00;;;;;;4986116;28;20413;-63
2021/08/24 04:11:48;;;;;;;4.53;3.22;;;14.00;76.10;;;;;;4981232;28;20034;-63
2021/08/24 04:14:14;;;;;;;3.80;2.80;;;14.00;76.00;;;;;;4983139;28;20030;-63
2021/08/24 04:16:39;;;;;;;4.47;3.22;;;14.00;76.10;;;;;;4981985;28;20038;-63
2021/08/24 04:19:05;;;;;;;4.70;3.05;;;13.90;76.30;;;;;;4985376;28;20034;-63
2021/08/24 04:21:31;;;;;;;5.05;3.03;;;13.80;76.50;;;;;;4999494;28;20089;-63
2021/08/24 04:23:57;;;;;;;4.07;3.00;;;13.80;76.70;;;;;;4982439;28;20122;-64
2021/08/24 04:26:22;;;;;;;4.03;3.33;;;13.80;76.90;;;;;;4984352;28;20406;-63
2021/08/24 04:28:48;;;;;;;4.35;3.17;;;13.70;77.20;;;;;;4983930;28;20046;-63
2021/08/24 04:31:17;;;;;;;3.90;3.50;;;13.70;77.70;;;;;;5000037;28;20031;-65
2021/08/24 04:33:43;;;;;;;4.10;3.28;;;13.70;78.00;;;;;;4984545;28;20100;-64
2021/08/24 04:36:09;;;;;;;4.18;3.33;;;13.70;78.20;;;;;;4984831;28;20494;-64
2021/08/24 04:38:35;;;;;;;3.78;3.25;;;13.60;78.40;;;;;;4983341;28;20756;-64
2021/08/24 04:41:02;;;;;;;5.00;3.13;;;13.60;78.60;;;;;;4984622;28;20042;-63
2021/08/24 04:43:27;;;;;;;3.38;3.00;;;13.70;78.90;;;;;;4986944;28;20034;-63
2021/08/24 04:45:53;;;;;;;5.15;2.72;;;13.70;78.80;;;;;;4987307;28;20039;-63
2021/08/24 04:48:19;;;;;;;5.43;3.00;;;13.70;78.80;;;;;;4988134;28;20130;-63
2021/08/24 04:50:45;;;;;;;3.33;2.47;;;13.70;78.70;;;;;;4988768;28;20038;-63
2021/08/24 04:53:12;;;;;;;3.20;2.90;;;13.80;78.80;;;;;;4986860;28;20084;-64
2021/08/24 04:55:38;;;;;;;3.90;2.45;;;13.80;78.80;;;;;;4987719;28;20045;-63
2021/08/24 04:58:04;;;;;;;2.95;2.60;;;13.90;78.70;;;;;;4989295;28;20041;-63
2021/08/24 05:00:30;;;;;;;3.72;3.10;;;13.90;78.80;;;;;;4987507;28;20034;-63
2021/08/24 05:02:56;;;;;;;3.42;2.58;;;13.90;78.80;;;;;;4986149;28;20055;-63
2021/08/24 05:05:23;;;;;;;30.23;17.98;;;13.90;78.70;;;;;;4987331;28;20112;-63
2021/08/24 05:07:48;;;;;;;31.90;19.92;;;14.00;79.60;;;;;;4988381;28;20501;-64
2021/08/24 05:10:14;;;;;;;10.77;7.75;;;14.00;78.80;;;;;;4987551;28;20058;-63
2021/08/24 05:12:40;;;;;;;7.93;5.03;;;14.10;78.80;;;;;;4983935;28;20771;-63
2021/08/24 05:15:06;;;;;;;11.57;8.07;;;14.10;78.80;;;;;;4988187;28;20035;-63
2021/08/24 05:17:32;;;;;;;6.07;4.93;;;14.10;78.90;;;;;;4990423;28;20528;-63
2021/08/24 05:19:57;;;;;;;5.13;3.60;;;14.20;79.10;;;;;;4989497;28;20030;-63
2021/08/24 05:22:23;;;;;;;9.07;3.80;;;14.20;79.10;;;;;;4988583;28;20034;-64
2021/08/24 05:24:49;;;;;;;5.75;3.33;;;14.30;78.90;;;;;;4989900;28;20134;-64
2021/08/24 05:27:15;;;;;;;6.25;3.40;;;14.30;78.80;;;;;;4988316;28;20042;-64
2021/08/24 05:29:40;;;;;;;5.50;3.97;;;14.30;78.70;;;;;;4988215;28;20034;-63
2021/08/24 05:32:07;;;;;;;5.20;3.80;;;14.30;78.60;;;;;;4987295;28;20169;-63
2021/08/24 05:34:33;;;;;;;5.57;3.15;;;14.40;78.50;;;;;;4985507;28;20050;-63
2021/08/24 05:36:58;;;;;;;4.93;2.90;;;14.30;78.40;;;;;;4988601;28;20568;-63
2021/08/24 05:39:24;;;;;;;5.10;3.42;;;14.40;78.60;;;;;;4997924;28;20065;-64
2021/08/24 05:41:50;;;;;;;5.72;2.90;;;14.40;78.60;;;;;;4986676;28;20034;-64
2021/08/24 05:44:15;;;;;;;3.92;3.08;;;14.40;78.70;;;;;;4987052;28;20054;-64
2021/08/24 05:46:41;;;;;;;5.00;3.25;;;14.40;78.80;;;;;;4987463;28;20043;-63
2021/08/24 05:49:10;;;;;;;4.00;2.83;;;14.40;78.80;;;;;;4988926;28;20049;-63
2021/08/24 05:51:38;;;;;;;4.68;3.10;;;14.40;78.80;;;;;;4986535;28;20027;-63
2021/08/24 05:54:04;;;;;;;3.58;2.83;;;14.40;79.00;;;;;;4982058;28;20426;-64
2021/08/24 05:56:31;;;;;;;5.57;2.88;;;14.40;79.10;;;;;;4985176;28;20037;-64
2021/08/24 05:58:57;;;;;;;6.18;2.70;;;14.50;78.90;;;;;;4986155;28;20034;-64
2021/08/24 06:01:25;;;;;;;5.72;3.05;;;14.50;79.00;;;;;;4987159;28;20048;-63
2021/08/24 06:03:51;;;;;;;5.13;3.33;;;14.50;79.10;;;;;;4984651;28;20457;-63
2021/08/24 06:06:18;;;;;;;7.03;3.33;;;14.50;79.10;;;;;;4984553;28;20145;-63
2021/08/24 06:08:44;;;;;;;4.95;3.30;;;14.60;79.30;;;;;;4986245;28;20045;-63
2021/08/24 06:11:19;;;;;;;4.88;3.20;;;14.60;79.10;;;;;;4982186;28;20042;-64
2021/08/24 06:13:45;;;;;;;3.90;3.33;;;14.60;79.20;;;;;;4961653;28;20505;-63
2021/08/24 06:16:11;;;;;;;4.95;3.38;;;14.60;78.90;;;;;;4962212;28;20126;-64
2021/08/24 06:18:37;;;;;;;5.10;2.97;;;14.60;78.90;;;;;;4967925;28;20034;-64
2021/08/24 06:21:03;;;;;;;4.55;3.42;;;14.70;78.90;;;;;;4976423;28;20073;-64
2021/08/24 06:23:28;;;;;;;4.03;3.17;;;14.70;78.90;;;;;;4975506;28;20663;-64
2021/08/24 06:25:54;;;;;;;5.75;3.65;;;14.70;78.70;;;;;;4977072;28;20038;-63
2021/08/24 06:28:19;;;;;;;6.80;3.70;;;14.80;78.60;;;;;;4982535;28;20037;-64
2021/08/24 06:30:45;;;;;;;6.65;3.67;;;14.80;78.60;;;;;;4974788;28;20038;-63
2021/08/24 06:33:11;;;;;;;4.28;3.75;;;14.80;78.70;;;;;;4991256;28;20530;-64
2021/08/24 06:35:36;;;;;;;6.40;4.30;;;14.80;78.70;;;;;;4978321;28;20047;-63
2021/08/24 06:38:02;;;;;;;4.38;3.65;;;14.80;78.80;;;;;;4977056;28;20409;-64
2021/08/24 06:40:28;;;;;;;5.80;4.32;;;14.90;78.80;;;;;;4972136;28;20030;-64
2021/08/24 06:42:54;;;;;;;6.93;4.35;;;14.90;78.90;;;;;;4973731;28;20027;-64
2021/08/24 06:45:23;;;;;;;6.55;4.38;;;14.90;79.00;;;;;;4971061;28;20039;-64
2021/08/24 06:47:49;;;;;;;5.07;4.10;;;14.90;79.10;;;;;;4976586;28;20058;-64
2021/08/24 06:50:15;;;;;;;5.95;4.28;;;15.00;79.10;;;;;;4978680;28;20077;-63
2021/08/24 06:52:41;;;;;;;6.05;4.38;;;15.00;79.10;;;;;;4973024;28;20093;-64
2021/08/24 06:55:09;;;;;;;7.10;4.30;;;15.00;79.10;;;;;;4969365;28;20042;-64
2021/08/24 06:57:39;;;;;;;6.18;4.47;;;15.10;79.10;;;;;;4976709;28;20127;-63
2021/08/24 07:00:07;;;;;;;8.05;4.40;;;15.00;79.10;;;;;;4975832;28;20045;-64
2021/08/24 07:02:33;;;;;;;6.05;4.13;;;15.10;79.10;;;;;;4967894;28;20066;-64
2021/08/24 07:05:00;;;;;;;5.40;4.50;;;15.20;78.90;;;;;;4973566;28;20058;-64
2021/08/24 07:07:26;;;;;;;5.60;4.30;;;15.20;78.70;;;;;;4987700;28;20050;-64
2021/08/24 07:09:52;;;;;;;6.68;4.43;;;15.20;78.60;;;;;;4975020;28;20034;-64
2021/08/24 07:12:17;;;;;;;7.57;4.70;;;15.30;78.40;;;;;;4973182;28;20117;-64
2021/08/24 07:14:43;;;;;;;5.45;4.53;;;15.30;78.40;;;;;;4980492;28;20034;-64
2021/08/24 07:17:08;;;;;;;7.15;4.40;;;15.40;78.30;;;;;;4992194;28;20587;-64
2021/08/24 07:19:34;;;;;;;5.95;4.15;;;15.40;78.30;;;;;;4980285;28;20072;-64
2021/08/24 07:22:02;;;;;;;5.47;4.32;;;15.40;78.20;;;;;;4978767;28;20077;-64
2021/08/24 07:24:27;;;;;;;7.22;4.32;;;15.50;78.20;;;;;;4970034;28;20046;-63
2021/08/24 07:26:53;;;;;;;5.15;4.07;;;15.50;78.10;;;;;;4972794;28;20542;-63
2021/08/24 07:29:18;;;;;;;6.78;4.20;;;15.60;78.00;;;;;;4975019;28;20030;-63
2021/08/24 07:31:44;;;;;;;6.32;3.72;;;15.60;78.00;;;;;;4973404;28;20035;-64
2021/08/24 07:34:10;;;;;;;7.03;4.10;;;15.60;78.00;;;;;;4969456;28;20058;-63
2021/08/24 07:36:36;;;;;;;5.95;4.22;;;15.60;78.00;;;;;;4989366;28;20149;-64
2021/08/24 07:39:04;;;;;;;6.22;4.25;;;15.60;78.00;;;;;;4980444;28;20110;-64
2021/08/24 07:41:29;;;;;;;4.78;4.20;;;15.70;77.90;;;;;;4979363;28;20084;-63
2021/08/24 07:43:55;;;;;;;5.78;4.25;;;15.70;77.70;;;;;;4991333;28;20034;-64
2021/08/24 07:46:20;;;;;;;5.22;4.43;;;15.70;77.70;;;;;;4976058;28;20043;-64
2021/08/24 07:48:46;;;;;;;5.82;3.95;;;15.80;77.70;;;;;;4978808;28;20125;-64
2021/08/24 07:51:12;;;;;;;5.97;4.57;;;15.80;77.60;;;;;;4977297;28;20034;-64
2021/08/24 07:53:38;;;;;;;5.07;3.92;;;15.90;77.50;;;;;;4974770;28;20042;-65
2021/08/24 07:56:06;;;;;;;5.32;4.50;;;15.90;77.30;;;;;;4978267;28;20418;-64
2021/08/24 07:58:32;;;;;;;5.55;4.38;;;15.90;77.20;;;;;;4978650;28;20518;-64
2021/08/24 08:00:58;;;;;;;4.82;4.10;;;16.00;77.20;;;;;;4971277;28;20137;-64
2021/08/24 08:03:23;;;;;;;5.22;4.47;;;16.10;77.10;;;;;;4973589;28;20058;-64
2021/08/24 08:05:49;;;;;;;4.85;4.35;;;16.10;77.00;;;;;;4998477;28;20039;-65
2021/08/24 08:08:15;;;;;;;5.82;4.55;;;16.10;76.80;;;;;;4976798;28;20035;-64
2021/08/24 08:10:40;;;;;;;5.03;4.50;;;16.10;76.80;;;;;;4975142;28;20031;-64
2021/08/24 08:13:06;;;;;;;6.15;4.82;;;16.20;76.80;;;;;;4993170;28;20514;-64
2021/08/24 08:15:33;;;;;;;6.60;4.85;;;16.20;76.30;;;;;;4973367;28;20038;-64
2021/08/24 08:18:04;;;;;;;6.93;4.68;;;16.30;76.20;;;;;;4979515;28;20041;-64
2021/08/24 08:20:31;;;;;;;6.85;4.88;;;16.30;76.00;;;;;;4984758;28;20372;-64
2021/08/24 08:22:57;;;;;;;5.80;4.95;;;16.20;76.00;;;;;;4983149;28;20088;-64
2021/08/24 08:25:23;;;;;;;6.18;4.88;;;16.30;76.00;;;;;;4982269;28;20627;-64
2021/08/24 08:27:49;;;;;;;6.72;5.10;;;16.30;76.00;;;;;;4985096;28;20038;-65
2021/08/24 08:30:15;;;;;;;7.60;5.80;;;16.30;76.00;;;;;;4978661;28;20375;-63
2021/08/24 08:32:43;;;;;;;8.50;4.80;;;16.30;75.70;;;;;;4986844;28;20071;-64
2021/08/24 08:35:11;;;;;;;5.28;4.78;;;16.30;75.60;;;;;;4991782;28;20042;-65
2021/08/24 08:37:37;;;;;;;7.40;5.13;;;16.40;75.80;;;;;;4990591;28;20030;-65
2021/08/24 08:40:05;;;;;;;6.53;4.70;;;16.40;75.90;;;;;;4988441;28;20039;-65
2021/08/24 08:42:56;;;;;;;6.85;5.07;;;16.40;76.00;;;;;;4988804;28;20026;-64
2021/08/24 08:45:25;;;;;;;7.25;4.95;;;16.40;76.10;;;;;;4986190;28;20039;-65
2021/08/24 08:48:18;;;;;;;7.18;4.85;;;16.40;76.10;;;;;;4989690;28;20045;-64
2021/08/24 08:50:50;;;;;;;5.50;4.53;;;16.50;75.90;;;;;;4990405;28;20096;-64
2021/08/24 08:53:35;;;;;;;4.80;4.28;;;16.50;75.90;;;;;;4989708;28;20037;-65
2021/08/24 08:56:33;;;;;;;7.93;4.70;;;16.50;75.90;;;;;;4989257;28;20037;-65
2021/08/24 08:59:13;;;;;;;5.88;4.45;;;16.60;76.00;;;;;;4983721;28;20274;-65
2021/08/24 09:01:46;;;;;;;6.25;5.07;;;16.60;75.60;;;;;;4988666;28;20076;-64
2021/08/24 09:04:23;;;;;;;5.80;5.10;;;16.60;75.40;;;;;;4987493;28;20046;-65
2021/08/24 09:06:53;;;;;;;6.22;4.78;;;16.60;75.80;;;;;;4988836;28;20514;-64
2021/08/24 09:09:20;;;;;;;5.47;4.82;;;16.60;75.70;;;;;;4986086;28;20038;-65
2021/08/24 09:11:48;;;;;;;6.10;4.82;;;16.70;76.00;;;;;;4981972;28;20038;-65
2021/08/24 09:14:35;;;;;;;6.32;5.10;;;16.70;75.80;;;;;;4988029;28;20096;-64
2021/08/24 09:17:21;;;;;;;6.15;5.05;;;16.70;75.60;;;;;;4988541;28;20046;-64
2021/08/24 09:19:59;;;;;;;5.82;5.20;;;16.80;75.40;;;;;;4989470;28;20049;-65
2021/08/24 09:22:25;;;;;;;5.13;4.63;;;16.80;75.30;;;;;;4990408;28;20022;-64
2021/08/24 09:24:52;;;;;;;7.00;5.15;;;16.80;75.30;;;;;;4988172;28;20058;-65
2021/08/24 09:27:48;;;;;;;5.82;4.70;;;16.90;75.30;;;;;;4990535;28;20162;-65
2021/08/24 09:30:15;;;;;;;5.10;4.60;;;16.90;75.30;;;;;;4985574;28;20038;-65
2021/08/24 09:32:41;;;;;;;5.50;4.93;;;16.90;74.90;;;;;;4975121;28;20502;-64
2021/08/24 09:35:27;;;;;;;5.40;4.88;;;17.00;75.10;;;;;;4987714;28;20042;-65
2021/08/24 09:37:53;;;;;;;6.07;5.00;;;17.00;74.70;;;;;;4986192;28;20538;-64
2021/08/24 09:40:35;;;;;;;5.57;4.85;;;17.00;74.70;;;;;;5000664;28;20046;-64
2021/08/24 09:43:20;;;;;;;5.88;4.63;;;17.10;74.60;;;;;;4987151;28;20037;-64
2021/08/24 09:45:58;;;;;;;6.97;4.47;;;17.10;74.50;;;;;;4984818;28;20034;-64
2021/08/24 09:48:24;;;;;;;5.10;4.53;;;17.10;74.50;;;;;;4984906;28;20073;-65
2021/08/24 09:50:49;;;;;;;4.97;4.47;;;17.10;74.50;;;;;;4985856;28;20125;-63
2021/08/24 09:53:30;;;;;;;5.80;4.35;;;17.10;74.60;;;;;;4981017;28;20058;-64
2021/08/24 09:55:56;;;;;;;17.67;11.25;;;17.20;74.50;;;;;;4976158;28;20126;-64
2021/08/24 09:58:34;;;;;;;8.38;6.07;;;17.20;75.40;;;;;;4984381;28;20031;-64
2021/08/24 10:01:07;;;;;;;10.13;7.13;;;17.20;74.40;;;;;;4999723;28;20125;-64
2021/08/24 10:03:39;;;;;;;7.55;5.65;;;17.20;74.40;;;;;;4992786;28;20089;-64
2021/08/24 10:06:21;;;;;;;13.70;7.95;;;17.20;74.20;;;;;;4980588;28;20039;-64
2021/08/24 10:08:54;;;;;;;7.75;6.05;;;17.20;74.20;;;;;;4978911;28;20043;-65
2021/08/24 10:11:32;;;;;;;7.47;5.32;;;17.20;74.30;;;;;;4994366;28;20243;-64
2021/08/24 10:14:11;;;;;;;9.02;4.88;;;17.20;74.40;;;;;;4986716;28;20034;-64
2021/08/24 10:16:40;;;;;;;6.65;4.85;;;17.20;74.10;;;;;;4985128;28;20093;-64
2021/08/24 10:19:22;;;;;;;5.18;4.60;;;17.20;74.10;;;;;;4982540;28;20507;-64
2021/08/24 10:22:02;;;;;;;5.43;4.90;;;17.20;74.10;;;;;;4983910;28;20096;-64
2021/08/24 10:24:39;;;;;;;5.72;4.70;;;17.20;74.20;;;;;;4986969;28;20038;-64
2021/08/24 10:27:25;;;;;;;4.72;4.30;;;17.20;74.20;;;;;;4977019;28;20066;-64
2021/08/24 10:29:55;;;;;;;6.38;4.30;;;17.20;74.40;;;;;;4984488;28;20036;-65
2021/08/24 10:32:30;;;;;;;5.57;4.60;;;17.20;74.40;;;;;;4980842;28;20038;-63
2021/08/24 10:35:00;;;;;;;4.90;4.50;;;17.20;74.30;;;;;;4974337;28;20035;-64
2021/08/24 10:37:26;;;;;;;4.70;4.25;;;17.20;74.60;;;;;;4987646;28;20437;-64
2021/08/24 10:40:14;;;;;;;6.53;4.55;;;17.20;74.60;;;;;;4984303;28;20046;-64
2021/08/24 10:43:00;;;;;;;5.55;4.80;;;17.20;74.70;;;;;;4980213;28;20031;-65
2021/08/24 10:45:30;;;;;;;7.20;5.18;;;17.20;74.80;;;;;;4982198;28;20026;-64
2021/08/24 10:47:58;;;;;;;5.50;4.78;;;17.20;74.70;;;;;;4983537;28;20046;-64
2021/08/24 10:50:37;;;;;;;5.38;4.88;;;17.30;74.70;;;;;;4984326;28;20073;-65
2021/08/24 10:53:25;;;;;;;5.93;5.22;;;17.30;74.70;;;;;;4979135;28;20038;-64
2021/08/24 10:55:59;;;;;;;5.65;5.07;;;17.30;74.60;;;;;;4995774;28;20031;-64
2021/08/24 10:58:36;;;;;;;6.88;5.07;;;17.30;74.70;;;;;;4982575;28;20030;-64
2021/08/24 11:01:15;;;;;;;5.65;4.88;;;17.30;74.90;;;;;;4992579;28;20042;-64
2021/08/24 11:03:47;;;;;;;5.60;4.93;;;17.30;74.80;;;;;;4981812;28;20104;-64
2021/08/24 11:06:28;;;;;;;6.75;5.10;;;17.40;74.80;;;;;;4985254;28;20072;-64
2021/08/24 11:08:54;;;;;;;5.55;5.05;;;17.30;74.70;;;;;;4984077;28;20114;-64
2021/08/24 11:11:43;;;;;;;6.35;5.10;;;17.30;74.70;;;;;;4981280;28;20129;-65
2021/08/24 11:14:45;;;;;;;5.00;4.50;;;17.40;75.10;;;;;;4983209;28;20046;-64
2021/08/24 11:17:35;;;;;;;5.22;4.72;;;17.40;74.90;;;;;;4982955;28;20093;-64
2021/08/24 11:20:09;;;;;;;5.50;5.00;;;17.40;74.70;;;;;;4982992;28;20262;-63
2021/08/24 11:22:35;;;;;;;7.55;5.40;;;17.40;75.10;;;;;;4977673;28;20081;-64
2021/08/24 11:25:13;;;;;;;5.60;5.00;;;17.50;74.80;;;;;;4984262;28;20030;-65
2021/08/24 11:27:54;;;;;;;5.45;4.95;;;17.60;74.80;;;;;;4988487;28;20038;-63
2021/08/24 11:30:31;;;;;;;6.40;4.93;;;17.60;74.90;;;;;;4975098;28;20050;-64
2021/08/24 11:33:23;;;;;;;5.07;4.60;;;17.70;75.10;;;;;;4973278;28;20096;-65
2021/08/24 11:35:57;;;;;;;8.50;5.35;;;17.80;75.10;;;;;;4983151;28;20039;-64
2021/08/24 11:38:29;;;;;;;6.57;5.45;;;17.90;74.70;;;;;;4980783;28;20395;-64
2021/08/24 11:41:01;;;;;;;6.45;5.32;;;18.00;74.60;;;;;;4984456;28;20073;-64
2021/08/24 11:44:02;;;;;;;5.75;5.22;;;18.00;74.20;;;;;;4981656;28;20049;-64
2021/08/24 11:46:40;;;;;;;5.88;5.32;;;18.10;74.30;;;;;;4979970;28;20042;-64
2021/08/24 11:49:21;;;;;;;6.30;5.70;;;18.30;74.00;;;;;;4981588;28;20034;-64
2021/08/24 11:52:05;;;;;;;6.35;5.75;;;18.30;73.90;;;;;;4982417;28;20117;-64
2021/08/24 11:54:47;;;;;;;6.38;5.78;;;18.40;73.30;;;;;;4979356;28;20101;-64
2021/08/24 11:57:31;;;;;;;6.05;5.45;;;18.50;73.10;;;;;;4984403;28;20121;-65
2021/08/24 11:59:57;;;;;;;5.70;5.20;;;18.60;73.20;;;;;;4979666;28;20050;-65
2021/08/24 12:02:39;;;;;;;5.47;4.97;;;18.60;73.40;;;;;;4979508;28;20053;-65
2021/08/24 12:05:12;;;;;;;5.65;5.15;;;18.70;73.20;;;;;;4985494;28;20035;-64
2021/08/24 12:07:40;;;;;;;4.95;4.55;;;18.80;73.30;;;;;;4983674;28;20066;-65
2021/08/24 12:10:32;;;;;;;6.40;5.35;;;18.90;73.20;;;;;;4984516;28;20073;-65
2021/08/24 12:13:04;;;;;;;6.15;5.05;;;19.00;72.50;;;;;;4980553;28;20109;-64
2021/08/24 12:15:58;;;;;;;6.25;4.45;;;19.00;72.10;;;;;;4980425;28;20034;-64
2021/08/24 12:18:26;;;;;;;5.30;4.78;;;19.10;71.40;;;;;;4982763;28;20058;-65
2021/08/24 12:20:56;;;;;;;5.00;4.50;;;19.20;72.00;;;;;;4985783;28;20046;-64
2021/08/24 12:23:39;;;;;;;6.40;4.65;;;19.20;71.10;;;;;;4978945;28;20447;-65
2021/08/24 12:26:25;;;;;;;4.55;4.15;;;19.30;70.20;;;;;;4982873;28;20066;-65
2021/08/24 12:28:52;;;;;;;4.45;4.00;;;19.30;70.50;;;;;;4985164;28;20035;-64
2021/08/24 12:31:40;;;;;;;4.25;3.85;;;19.40;70.80;;;;;;4981189;28;20041;-64
2021/08/24 12:34:48;;;;;;;3.80;3.50;;;19.50;70.20;;;;;;4974104;28;20037;-65
2021/08/24 12:37:19;;;;;;;4.15;3.78;;;19.50;68.70;;;;;;4984871;28;20394;-64
2021/08/24 12:39:47;;;;;;;5.45;4.15;;;19.60;68.50;;;;;;4984955;28;20073;-64
2021/08/24 12:42:34;;;;;;;4.38;4.00;;;19.60;69.00;;;;;;4981003;28;20046;-65
2021/08/24 12:44:59;;;;;;;4.68;3.83;;;19.70;68.90;;;;;;4981473;28;20503;-64
2021/08/24 12:47:30;;;;;;;4.10;3.80;;;19.70;69.20;;;;;;4980556;28;20092;-65
2021/08/24 12:50:19;;;;;;;4.03;3.70;;;19.80;69.20;;;;;;4983815;28;20077;-65
2021/08/24 12:52:50;;;;;;;4.60;3.55;;;19.80;68.30;;;;;;4982120;28;20038;-64
2021/08/24 12:55:31;;;;;;;4.60;4.20;;;19.90;69.50;;;;;;4984793;28;20050;-65
2021/08/24 12:58:40;;;;;;;4.10;3.75;;;19.90;68.10;;;;;;4984175;28;20029;-64
2021/08/24 13:01:12;;;;;;;4.10;3.80;;;20.00;68.10;;;;;;4979805;28;20414;-64
2021/08/24 13:04:12;;;;;;;4.28;3.75;;;20.00;68.10;;;;;;4982620;28;20034;-64
2021/08/24 13:06:41;;;;;;;4.50;3.72;;;20.10;67.70;;;;;;4983595;28;20138;-64
2021/08/24 13:09:27;;;;;;;4.95;4.30;;;20.10;68.00;;;;;;4980513;28;20031;-64
2021/08/24 13:12:17;;;;;;;4.50;4.10;;;20.20;66.90;;;;;;4981772;28;20771;-64
2021/08/24 13:14:52;;;;;;;4.30;3.55;;;20.20;66.90;;;;;;4981259;28;20502;-64